Time;durP1;ratioP1;P1;durP2;ratioP2;P2;SDS_P1;SDS_P2;PMS_P1;PMS_P2;Temp;Humidity;BMP_temperature;BMP_pressure;BME280_temperature;BME280_humidity;BME280_pressure;Samples;Min_cycle;Max_cycle;Signal;HPM_P1;HPM_P2
2022/11/08 00:02:15;;;;;;;9.45;4.25;;;10.70;87.90;;;;;;5102933;27;20048;-64
2022/11/08 00:04:48;;;;;;;9.63;4.32;;;10.70;88.00;;;;;;5108062;27;20043;-64
2022/11/08 00:15:40;;;;;;;9.45;4.40;;;10.50;87.80;;;;;;5106853;27;20130;-70
2022/11/08 00:18:08;;;;;;;8.82;4.22;;;10.50;87.80;;;;;;5104735;27;20044;-69
2022/11/08 00:20:35;;;;;;;8.38;3.80;;;10.50;87.80;;;;;;5104296;27;20052;-72
2022/11/08 00:23:02;;;;;;;11.18;3.97;;;10.40;87.80;;;;;;5107099;27;20401;-70
2022/11/08 00:25:29;;;;;;;7.28;3.72;;;10.40;87.80;;;;;;5107320;27;20147;-62
2022/11/08 00:27:57;;;;;;;8.20;3.47;;;10.40;87.80;;;;;;5108865;27;20047;-62
2022/11/08 00:30:29;;;;;;;9.10;3.60;;;10.40;88.00;;;;;;5104482;27;20533;-71
2022/11/08 00:32:57;;;;;;;10.27;3.50;;;10.30;87.90;;;;;;5107281;27;20403;-70
2022/11/08 00:35:26;;;;;;;;;;;10.30;87.90;;;;;;5102927;27;20056;-60
2022/11/08 00:37:56;;;;;;;9.98;3.30;;;10.30;87.90;;;;;;5097900;27;19927;-61
2022/11/08 00:40:23;;;;;;;9.02;3.30;;;10.20;87.90;;;;;;5103157;27;20478;-61
2022/11/08 00:42:50;;;;;;;7.20;3.38;;;10.20;87.90;;;;;;5103751;27;20468;-61
2022/11/08 00:45:17;;;;;;;7.35;3.50;;;10.20;87.90;;;;;;5108173;27;20055;-64
2022/11/08 00:47:44;;;;;;;8.18;3.55;;;10.20;87.90;;;;;;5103403;27;20063;-64
2022/11/08 00:50:12;;;;;;;6.85;3.30;;;10.20;87.80;;;;;;5103540;27;20048;-64
2022/11/08 00:52:39;;;;;;;6.57;3.30;;;10.10;87.80;;;;;;5108844;27;20387;-64
2022/11/08 00:55:07;;;;;;;6.90;3.50;;;10.10;87.70;;;;;;5100395;27;20040;-64
2022/11/08 00:57:34;;;;;;;5.07;2.80;;;10.10;87.70;;;;;;5105667;27;20036;-71
2022/11/08 01:00:01;;;;;;;9.32;3.00;;;10.00;87.60;;;;;;5109018;27;20051;-70
2022/11/08 01:02:29;;;;;;;6.30;2.88;;;10.00;87.60;;;;;;5113952;27;20051;-60
2022/11/08 01:04:56;;;;;;;6.45;2.88;;;10.00;87.50;;;;;;5128231;27;20116;-60
2022/11/08 01:07:25;;;;;;;7.00;3.20;;;9.90;87.50;;;;;;5104899;27;20051;-64
2022/11/08 01:09:52;;;;;;;7.30;3.20;;;9.90;87.50;;;;;;5108400;27;20047;-63
2022/11/08 01:12:19;;;;;;;8.05;2.78;;;9.90;87.40;;;;;;5107504;27;20058;-61
2022/11/08 01:14:46;;;;;;;6.40;3.42;;;9.90;87.40;;;;;;5110320;27;20071;-61
2022/11/08 01:17:13;;;;;;;5.97;2.65;;;9.80;87.40;;;;;;5109390;27;20040;-71
2022/11/08 01:19:40;;;;;;;8.85;3.60;;;9.80;87.30;;;;;;5102779;27;20447;-72
2022/11/08 01:22:07;;;;;;;6.90;3.35;;;9.80;87.20;;;;;;5106147;27;20046;-62
2022/11/08 01:24:36;;;;;;;6.93;3.20;;;9.70;87.20;;;;;;5107427;27;20058;-62
2022/11/08 01:27:03;;;;;;;7.38;3.08;;;9.70;87.20;;;;;;5106660;27;20101;-70
2022/11/08 01:29:30;;;;;;;6.95;2.80;;;9.70;87.20;;;;;;5107442;27;20040;-70
2022/11/08 01:31:57;;;;;;;6.65;3.25;;;9.70;87.20;;;;;;5105664;27;20048;-63
2022/11/08 01:34:24;;;;;;;7.53;3.13;;;9.70;87.20;;;;;;5105161;27;20062;-63
2022/11/08 01:36:50;;;;;;;7.05;2.92;;;9.70;87.20;;;;;;5104957;27;20468;-61
2022/11/08 01:39:17;;;;;;;6.43;2.90;;;9.70;87.10;;;;;;5103966;27;20063;-62
2022/11/08 01:41:46;;;;;;;8.65;3.10;;;9.60;87.10;;;;;;5103777;27;20395;-62
2022/11/08 01:44:16;;;;;;;7.45;2.78;;;9.60;87.10;;;;;;5107676;27;20048;-63
2022/11/08 01:46:47;;;;;;;7.18;2.60;;;9.50;87.10;;;;;;5103881;27;20046;-70
2022/11/08 01:49:23;;;;;;;5.22;2.35;;;9.50;87.00;;;;;;5106675;27;20101;-69
2022/11/08 01:51:55;;;;;;;6.38;2.20;;;9.50;87.00;;;;;;5100968;27;20062;-62
2022/11/08 01:54:30;;;;;;;5.72;3.10;;;9.50;87.00;;;;;;5105608;27;20387;-61
2022/11/08 01:57:03;;;;;;;5.70;2.05;;;9.40;87.00;;;;;;5106191;27;20043;-70
2022/11/08 01:59:31;;;;;;;4.72;1.83;;;9.40;87.00;;;;;;5105491;27;20043;-70
2022/11/08 02:01:58;;;;;;;5.80;2.00;;;9.40;87.00;;;;;;5096361;27;20043;-61
2022/11/08 02:04:25;;;;;;;6.25;2.00;;;9.30;86.90;;;;;;5106039;27;20382;-61
2022/11/08 02:06:53;;;;;;;4.57;1.80;;;9.30;86.90;;;;;;5102807;28;20047;-63
2022/11/08 02:09:20;;;;;;;6.28;2.38;;;9.20;86.80;;;;;;5101311;27;20050;-63
2022/11/08 02:11:49;;;;;;;9.38;2.92;;;9.30;86.90;;;;;;5105236;27;22360;-63
2022/11/08 02:14:18;;;;;;;9.40;2.38;;;9.20;86.90;;;;;;5091322;27;20051;-64
2022/11/08 02:16:45;;;;;;;9.13;2.90;;;9.20;86.90;;;;;;5099378;27;20074;-62
2022/11/08 02:19:24;;;;;;;9.07;2.80;;;9.20;87.00;;;;;;5106238;27;20054;-61
2022/11/08 02:21:54;;;;;;;7.25;2.67;;;9.20;86.90;;;;;;5102359;27;20058;-70
2022/11/08 02:24:23;;;;;;;6.47;2.50;;;9.20;86.90;;;;;;5107337;27;20050;-71
2022/11/08 02:26:52;;;;;;;7.53;2.65;;;9.20;86.90;;;;;;5106205;27;20044;-71
2022/11/08 02:29:24;;;;;;;6.10;2.45;;;9.20;86.90;;;;;;5104881;27;20046;-72
2022/11/08 02:31:51;;;;;;;5.45;2.50;;;9.10;86.90;;;;;;5104873;27;20113;-62
2022/11/08 02:34:20;;;;;;;6.30;2.60;;;9.20;86.80;;;;;;5106753;27;20501;-62
2022/11/08 02:36:48;;;;;;;5.20;1.90;;;9.10;86.80;;;;;;5106686;27;20062;-62
2022/11/08 02:39:15;;;;;;;6.43;2.28;;;9.10;86.80;;;;;;5105727;27;20082;-62
2022/11/08 02:41:43;;;;;;;4.72;1.92;;;9.00;86.80;;;;;;5105904;27;20051;-64
2022/11/08 02:44:10;;;;;;;8.63;2.33;;;9.00;86.80;;;;;;5102714;27;20262;-64
2022/11/08 02:46:37;;;;;;;4.30;2.05;;;9.00;86.80;;;;;;5099364;27;20035;-64
2022/11/08 02:49:04;;;;;;;4.82;2.03;;;9.00;86.80;;;;;;5104462;27;20618;-69
2022/11/08 02:51:31;;;;;;;6.45;2.20;;;8.90;86.70;;;;;;5102661;27;20052;-61
2022/11/08 02:53:59;;;;;;;6.32;2.28;;;8.90;86.70;;;;;;5103279;27;20047;-63
2022/11/08 02:56:26;;;;;;;6.25;2.10;;;8.90;86.70;;;;;;5102545;27;20052;-63
2022/11/08 02:58:54;;;;;;;5.30;2.20;;;8.90;86.80;;;;;;5105173;27;20044;-62
2022/11/08 03:01:21;;;;;;;3.42;1.65;;;8.80;86.70;;;;;;5106243;27;20057;-64
2022/11/08 03:03:48;;;;;;;8.30;2.05;;;8.80;86.70;;;;;;5106264;27;20047;-64
2022/11/08 03:06:15;;;;;;;6.88;2.42;;;8.70;86.70;;;;;;5105526;27;20070;-64
2022/11/08 03:08:42;;;;;;;6.13;1.90;;;8.70;86.70;;;;;;5103202;27;20047;-64
2022/11/08 03:11:09;;;;;;;4.72;2.08;;;8.70;86.70;;;;;;5103743;27;20044;-64
2022/11/08 03:13:36;;;;;;;4.93;1.90;;;8.70;86.70;;;;;;5106564;27;20043;-64
2022/11/08 03:16:05;;;;;;;4.05;1.70;;;8.60;86.70;;;;;;5107502;28;20138;-61
2022/11/08 03:18:33;;;;;;;4.60;2.00;;;8.60;86.70;;;;;;5105141;27;20050;-62
2022/11/08 03:21:00;;;;;;;5.05;1.95;;;8.60;86.70;;;;;;5101405;27;20036;-61
2022/11/08 03:23:27;;;;;;;5.32;1.92;;;8.60;86.70;;;;;;5103997;27;20088;-63
2022/11/08 03:25:55;;;;;;;4.03;1.50;;;8.60;86.60;;;;;;5107125;27;20474;-70
2022/11/08 03:28:22;;;;;;;7.50;3.00;;;8.60;86.70;;;;;;5103176;27;20481;-72
2022/11/08 03:30:51;;;;;;;6.68;2.30;;;8.60;86.60;;;;;;5105120;27;20504;-64
2022/11/08 03:33:20;;;;;;;4.25;2.00;;;8.60;86.60;;;;;;5102357;27;20071;-64
2022/11/08 03:35:47;;;;;;;4.30;1.98;;;8.60;86.60;;;;;;5106715;27;20051;-64
2022/11/08 03:38:15;;;;;;;3.80;1.60;;;8.60;86.50;;;;;;5097071;27;20052;-64
2022/11/08 03:40:42;;;;;;;4.72;1.90;;;8.50;86.50;;;;;;5101509;27;20058;-64
2022/11/08 03:43:09;;;;;;;3.20;1.58;;;8.50;86.60;;;;;;5106258;27;20046;-65
2022/11/08 03:45:36;;;;;;;4.95;1.55;;;8.50;86.50;;;;;;5119325;27;20060;-63
2022/11/08 03:48:04;;;;;;;4.32;1.80;;;8.50;86.50;;;;;;5111239;27;20051;-64
2022/11/08 03:50:32;;;;;;;3.72;1.63;;;8.40;86.40;;;;;;5105281;27;20073;-71
2022/11/08 03:52:59;;;;;;;4.47;1.52;;;8.40;86.50;;;;;;5106089;27;20047;-71
2022/11/08 03:55:28;;;;;;;4.60;1.70;;;8.40;86.40;;;;;;5102738;27;20043;-70
2022/11/08 03:57:55;;;;;;;3.17;1.77;;;8.30;86.40;;;;;;5106723;27;20043;-70
2022/11/08 04:00:24;;;;;;;3.83;2.03;;;8.30;86.40;;;;;;5105365;27;20044;-64
2022/11/08 04:02:53;;;;;;;;;;;8.30;86.50;;;;;;5107395;27;20054;-64
2022/11/08 04:05:20;;;;;;;7.40;2.00;;;8.20;86.50;;;;;;5104638;27;20361;-64
2022/11/08 04:07:49;;;;;;;4.70;1.70;;;8.30;86.30;;;;;;5102522;28;20425;-64
2022/11/08 04:10:17;;;;;;;5.93;1.75;;;8.20;86.30;;;;;;5100875;27;20044;-63
2022/11/08 04:15:30;;;;;;;5.30;2.10;;;8.20;86.30;;;;;;5105050;27;20047;-63
2022/11/08 04:23:31;;;;;;;5.25;2.08;;;8.10;86.30;;;;;;5104963;27;20043;-61
2022/11/08 04:26:00;;;;;;;6.63;1.90;;;8.10;86.30;;;;;;5101683;27;20048;-61
2022/11/08 04:28:29;;;;;;;7.50;2.70;;;8.00;86.40;;;;;;5101142;27;20573;-61
2022/11/08 04:30:58;;;;;;;6.43;2.03;;;8.00;86.40;;;;;;5108832;27;20127;-61
2022/11/08 04:33:25;;;;;;;6.00;2.30;;;8.00;86.50;;;;;;5105822;27;20406;-62
2022/11/08 04:35:53;;;;;;;6.32;2.65;;;8.10;86.50;;;;;;5109484;27;20051;-70
2022/11/08 04:38:20;;;;;;;6.20;2.60;;;8.00;86.50;;;;;;5105182;27;20044;-71
2022/11/08 04:40:48;;;;;;;5.57;2.10;;;8.00;86.60;;;;;;5109306;27;20046;-61
2022/11/08 04:43:15;;;;;;;6.00;2.50;;;8.00;86.70;;;;;;5107798;27;20052;-61
2022/11/08 04:45:42;;;;;;;5.00;2.83;;;8.00;86.70;;;;;;5110055;27;20047;-64
2022/11/08 04:48:09;;;;;;;4.60;1.90;;;7.90;86.80;;;;;;5103705;27;20039;-66
2022/11/08 04:50:36;;;;;;;4.80;2.13;;;8.00;86.70;;;;;;5111275;27;20393;-63
2022/11/08 04:53:03;;;;;;;4.40;1.92;;;8.00;86.80;;;;;;5105517;27;20457;-65
2022/11/08 04:55:30;;;;;;;6.95;2.13;;;8.00;86.80;;;;;;5109856;27;20043;-61
2022/11/08 04:57:59;;;;;;;4.20;1.80;;;7.90;86.90;;;;;;5109538;27;20474;-62
2022/11/08 05:00:27;;;;;;;5.70;1.77;;;7.90;87.00;;;;;;5108479;27;20466;-64
2022/11/08 05:02:54;;;;;;;4.70;1.70;;;8.00;86.70;;;;;;5107284;27;20542;-65
2022/11/08 05:05:22;;;;;;;4.32;1.70;;;7.90;86.90;;;;;;5109906;27;20043;-62
2022/11/08 05:07:49;;;;;;;5.22;1.20;;;7.90;87.00;;;;;;5108932;27;20039;-62
2022/11/08 05:10:17;;;;;;;3.90;1.27;;;7.90;87.00;;;;;;5107050;27;20123;-68
2022/11/08 05:12:44;;;;;;;3.97;1.38;;;7.90;87.00;;;;;;5103134;27;20055;-72
2022/11/08 05:15:13;;;;;;;3.53;1.20;;;7.90;87.10;;;;;;5102259;27;20044;-72
2022/11/08 05:17:40;;;;;;;2.38;0.90;;;7.90;87.20;;;;;;5108835;27;20043;-72
2022/11/08 05:25:45;;;;;;;3.83;1.13;;;7.80;87.20;;;;;;5103475;27;20490;-71
2022/11/08 05:28:12;;;;;;;2.13;1.05;;;7.80;87.20;;;;;;5107782;27;20044;-73
2022/11/08 05:30:40;;;;;;;4.15;1.13;;;7.80;87.20;;;;;;5105087;27;20050;-62
2022/11/08 05:33:07;;;;;;;3.42;1.40;;;7.90;87.10;;;;;;5106721;27;20047;-63
2022/11/08 05:35:34;;;;;;;3.25;1.15;;;7.80;87.10;;;;;;5108069;27;20052;-60
2022/11/08 05:38:01;;;;;;;5.60;1.48;;;7.90;87.10;;;;;;5107544;27;20139;-61
2022/11/08 05:40:32;;;;;;;3.93;1.53;;;7.80;87.10;;;;;;5106809;27;20048;-64
2022/11/08 05:42:59;;;;;;;4.88;2.15;;;7.80;87.10;;;;;;5103591;27;20048;-63
2022/11/08 05:45:26;;;;;;;3.63;1.35;;;7.80;87.20;;;;;;5100880;27;20138;-64
2022/11/08 05:47:54;;;;;;;3.90;1.20;;;7.70;87.20;;;;;;5106610;27;20056;-64
2022/11/08 05:50:21;;;;;;;4.25;1.17;;;7.80;87.20;;;;;;5103680;27;20052;-60
2022/11/08 05:52:48;;;;;;;4.63;1.38;;;7.80;87.10;;;;;;5107142;27;20083;-61
2022/11/08 05:55:15;;;;;;;3.42;1.35;;;7.80;87.10;;;;;;5104543;27;20044;-61
2022/11/08 05:57:43;;;;;;;5.50;1.60;;;7.70;87.00;;;;;;5107772;27;20047;-61
2022/11/08 06:00:11;;;;;;;3.90;1.30;;;7.70;86.90;;;;;;5105173;27;20122;-62
2022/11/08 06:02:38;;;;;;;4.22;1.20;;;7.70;86.90;;;;;;5106319;27;20048;-62
2022/11/08 06:05:08;;;;;;;4.07;1.42;;;7.70;86.80;;;;;;5105985;27;20054;-62
2022/11/08 06:07:35;;;;;;;3.22;1.50;;;7.70;86.90;;;;;;5101164;28;20394;-61
2022/11/08 06:10:03;;;;;;;3.47;1.38;;;7.60;86.80;;;;;;5108050;27;20038;-61
2022/11/08 06:12:30;;;;;;;5.68;1.70;;;7.60;86.80;;;;;;5108050;27;20412;-61
2022/11/08 06:14:57;;;;;;;2.28;1.20;;;7.50;86.80;;;;;;5104835;27;20052;-60
2022/11/08 06:17:24;;;;;;;5.95;2.00;;;7.50;86.80;;;;;;5107533;27;20497;-64
2022/11/08 06:19:51;;;;;;;4.15;1.40;;;7.60;86.70;;;;;;5108064;27;20080;-63
2022/11/08 06:22:19;;;;;;;3.83;1.60;;;7.60;86.70;;;;;;5108344;27;20509;-64
2022/11/08 06:24:46;;;;;;;3.30;1.55;;;7.60;86.70;;;;;;5106947;27;20039;-63
2022/11/08 06:27:14;;;;;;;3.97;1.25;;;7.60;86.90;;;;;;5115154;27;20047;-72
2022/11/08 06:29:42;;;;;;;3.88;1.40;;;7.50;86.90;;;;;;5122216;28;20452;-69
2022/11/08 06:32:09;;;;;;;3.08;1.73;;;7.60;86.90;;;;;;5109971;27;20097;-64
2022/11/08 06:34:36;;;;;;;2.67;1.33;;;7.60;86.90;;;;;;5107168;27;20500;-64
2022/11/08 06:37:04;;;;;;;4.15;1.50;;;7.60;86.90;;;;;;5106767;27;20051;-63
2022/11/08 06:39:33;;;;;;;4.07;1.90;;;7.50;86.90;;;;;;5108976;27;20044;-62
2022/11/08 06:42:00;;;;;;;5.60;1.60;;;7.50;87.00;;;;;;5111274;27;21225;-70
2022/11/08 06:44:28;;;;;;;3.05;1.52;;;7.60;87.00;;;;;;5106474;27;20051;-70
2022/11/08 06:46:55;;;;;;;5.40;2.22;;;7.60;87.00;;;;;;5104016;27;20047;-62
2022/11/08 06:49:23;;;;;;;3.65;1.80;;;7.60;86.60;;;;;;5101636;27;20093;-62
2022/11/08 06:51:50;;;;;;;4.20;2.05;;;7.60;86.40;;;;;;5104666;27;20040;-70
2022/11/08 06:54:18;;;;;;;5.68;1.90;;;7.60;86.70;;;;;;5108057;27;20056;-70
2022/11/08 06:56:46;;;;;;;3.17;1.48;;;7.60;86.70;;;;;;5104289;27;20062;-61
2022/11/08 06:59:13;;;;;;;4.55;1.60;;;7.60;86.80;;;;;;5105504;27;20049;-61
2022/11/08 07:01:40;;;;;;;3.10;1.35;;;7.50;87.00;;;;;;5104328;27;20044;-63
2022/11/08 07:04:07;;;;;;;5.63;1.77;;;7.50;87.20;;;;;;5107919;27;20084;-64
2022/11/08 07:06:34;;;;;;;5.20;1.65;;;7.50;87.40;;;;;;5105786;27;20067;-61
2022/11/08 07:09:01;;;;;;;7.18;2.03;;;7.50;87.50;;;;;;5103896;27;20074;-61
2022/11/08 07:11:28;;;;;;;4.35;2.47;;;7.50;87.40;;;;;;5103861;27;20489;-70
2022/11/08 07:13:56;;;;;;;4.35;2.00;;;7.60;87.50;;;;;;5106269;27;20070;-69
2022/11/08 07:16:23;;;;;;;5.75;2.35;;;7.50;87.30;;;;;;5099078;27;20047;-61
2022/11/08 07:18:50;;;;;;;4.82;1.90;;;7.50;87.30;;;;;;5103707;27;20047;-61
2022/11/08 07:21:17;;;;;;;4.38;2.00;;;7.60;87.40;;;;;;5104421;27;20051;-62
2022/11/08 07:23:44;;;;;;;4.47;1.70;;;7.60;87.50;;;;;;5102820;27;20086;-61
2022/11/08 07:26:12;;;;;;;3.35;1.40;;;7.60;87.50;;;;;;5103525;27;20054;-62
2022/11/08 07:28:39;;;;;;;5.22;1.92;;;7.70;87.40;;;;;;5105971;27;20047;-62
2022/11/08 07:31:08;;;;;;;4.60;1.63;;;7.70;87.50;;;;;;5103976;27;20062;-60
2022/11/08 07:33:35;;;;;;;5.15;1.92;;;7.70;87.60;;;;;;5105745;27;20044;-60
2022/11/08 07:36:03;;;;;;;4.25;2.08;;;7.70;87.60;;;;;;5104288;27;20071;-63
2022/11/08 07:38:30;;;;;;;5.00;3.15;;;7.70;87.80;;;;;;5104186;27;20049;-63
2022/11/08 07:40:58;;;;;;;6.40;3.15;;;7.60;87.90;;;;;;5105236;27;20055;-71
2022/11/08 07:43:26;;;;;;;5.05;2.80;;;7.70;87.90;;;;;;5106966;27;20043;-71
2022/11/08 07:45:57;;;;;;;5.18;2.40;;;7.70;87.90;;;;;;5098979;28;20043;-71
2022/11/08 07:48:27;;;;;;;5.18;2.80;;;7.70;87.90;;;;;;5102200;27;20379;-71
2022/11/08 07:50:54;;;;;;;6.27;2.77;;;7.80;88.00;;;;;;5100894;27;20048;-70
2022/11/08 07:53:22;;;;;;;7.20;2.75;;;7.80;88.20;;;;;;5105523;27;20512;-71
2022/11/08 07:55:51;;;;;;;6.88;2.45;;;7.90;88.20;;;;;;5103418;28;20127;-71
2022/11/08 07:58:18;;;;;;;5.20;2.38;;;7.90;88.20;;;;;;5102631;27;20490;-71
2022/11/08 08:00:48;;;;;;;5.50;2.03;;;8.00;88.10;;;;;;5103429;27;20048;-64
2022/11/08 08:03:15;;;;;;;;;;;8.00;88.20;;;;;;5102813;27;20052;-64
2022/11/08 08:05:45;;;;;;;3.90;1.90;;;8.10;88.40;;;;;;5103707;27;20278;-60
2022/11/08 08:08:13;;;;;;;5.53;1.80;;;8.00;88.50;;;;;;5109662;27;20050;-60
2022/11/08 08:10:41;;;;;;;5.80;2.35;;;8.10;88.30;;;;;;5107027;27;20117;-64
2022/11/08 08:13:08;;;;;;;3.50;1.58;;;8.10;88.50;;;;;;5107901;27;20049;-63
2022/11/08 08:15:35;;;;;;;4.03;1.77;;;8.20;88.50;;;;;;5105175;28;20073;-62
2022/11/08 08:18:04;;;;;;;5.03;1.85;;;8.20;88.50;;;;;;5107257;27;20067;-62
2022/11/08 08:20:31;;;;;;;4.35;1.88;;;8.20;88.50;;;;;;5105241;27;20059;-68
2022/11/08 08:23:00;;;;;;;4.90;2.10;;;8.10;88.40;;;;;;5111809;27;20043;-69
2022/11/08 08:25:30;;;;;;;4.95;1.75;;;8.10;88.30;;;;;;5098968;27;20440;-63
2022/11/08 08:28:00;;;;;;;4.20;2.00;;;8.20;88.70;;;;;;5110344;27;20055;-65
2022/11/08 08:30:33;;;;;;;4.03;1.50;;;8.20;88.80;;;;;;5107613;27;20056;-63
2022/11/08 08:33:05;;;;;;;2.80;1.77;;;8.20;88.30;;;;;;5109262;27;20508;-64
2022/11/08 08:35:33;;;;;;;3.70;1.70;;;8.20;88.60;;;;;;5095519;27;20040;-64
2022/11/08 08:38:07;;;;;;;5.28;2.20;;;8.20;88.70;;;;;;5109131;27;20068;-66
2022/11/08 08:40:34;;;;;;;3.63;2.03;;;8.30;88.70;;;;;;5107982;27;20105;-69
2022/11/08 08:43:03;;;;;;;3.25;2.28;;;8.30;88.90;;;;;;5106696;27;20050;-68
2022/11/08 08:45:31;;;;;;;5.72;2.40;;;8.30;88.30;;;;;;5106433;27;20055;-63
2022/11/08 08:47:58;;;;;;;4.30;2.38;;;8.30;88.50;;;;;;5102250;27;20051;-61
2022/11/08 08:50:27;;;;;;;7.15;2.83;;;8.30;88.30;;;;;;5106067;27;20108;-64
2022/11/08 08:52:57;;;;;;;5.38;2.70;;;8.30;88.20;;;;;;5105855;27;20044;-63
2022/11/08 08:55:26;;;;;;;5.18;2.30;;;8.30;88.40;;;;;;5106361;27;20086;-61
2022/11/08 08:57:53;;;;;;;4.93;2.70;;;8.30;88.50;;;;;;5110147;27;20048;-61
2022/11/08 09:00:20;;;;;;;4.15;2.22;;;8.40;88.60;;;;;;5097578;27;20405;-61
2022/11/08 09:02:47;;;;;;;4.57;2.42;;;8.40;88.30;;;;;;5117972;27;20097;-62
2022/11/08 09:05:14;;;;;;;4.75;2.25;;;8.60;89.00;;;;;;5107372;27;20047;-61
2022/11/08 09:07:42;;;;;;;5.45;2.20;;;8.50;88.20;;;;;;5109107;27;20048;-65
2022/11/08 09:10:10;;;;;;;6.85;2.10;;;8.50;88.30;;;;;;5124797;27;20083;-61
2022/11/08 09:12:38;;;;;;;7.78;2.40;;;8.50;88.60;;;;;;5119561;27;20047;-61
2022/11/08 09:15:06;;;;;;;4.93;2.60;;;8.60;89.60;;;;;;5106792;27;20077;-62
2022/11/08 09:17:33;;;;;;;4.35;2.40;;;8.60;89.30;;;;;;5106396;27;20050;-61
2022/11/08 09:20:00;;;;;;;3.70;2.20;;;8.70;89.90;;;;;;5103460;27;20039;-62
2022/11/08 09:22:28;;;;;;;4.80;2.53;;;8.70;89.40;;;;;;5109548;27;20040;-61
2022/11/08 09:24:55;;;;;;;5.10;2.13;;;8.80;90.10;;;;;;5108713;27;20050;-60
2022/11/08 09:27:22;;;;;;;6.05;2.63;;;8.90;89.50;;;;;;5105140;27;20044;-62
2022/11/08 09:29:51;;;;;;;5.60;2.45;;;8.90;90.10;;;;;;5106983;27;20497;-61
2022/11/08 09:32:18;;;;;;;4.93;2.20;;;9.00;89.80;;;;;;5106509;27;20048;-61
2022/11/08 09:34:45;;;;;;;4.20;2.30;;;9.10;90.20;;;;;;5090861;27;20058;-61
2022/11/08 09:37:13;;;;;;;5.32;2.30;;;9.10;90.20;;;;;;5104619;27;20065;-62
2022/11/08 09:39:40;;;;;;;3.97;2.20;;;9.20;90.00;;;;;;5106123;27;20109;-61
2022/11/08 09:42:23;;;;;;;4.50;2.20;;;9.20;89.90;;;;;;5106445;27;20410;-61
2022/11/08 09:45:23;;;;;;;3.92;2.00;;;9.20;90.00;;;;;;5103960;27;20066;-61
2022/11/08 09:47:54;;;;;;;4.25;1.85;;;9.30;90.00;;;;;;5082603;27;20071;-61
2022/11/08 09:50:27;;;;;;;5.47;2.67;;;9.40;89.90;;;;;;5105755;27;20206;-61
2022/11/08 09:53:02;;;;;;;4.82;2.30;;;9.40;89.80;;;;;;5105241;27;20414;-61
2022/11/08 09:55:36;;;;;;;4.22;1.95;;;9.50;89.70;;;;;;5106322;27;20043;-62
2022/11/08 09:58:15;;;;;;;4.28;1.95;;;9.50;89.50;;;;;;5108294;28;20036;-60
2022/11/08 10:00:43;;;;;;;5.05;2.15;;;9.50;89.90;;;;;;5110071;27;20058;-62
2022/11/08 10:03:13;;;;;;;5.15;2.20;;;9.60;89.90;;;;;;5104798;27;20047;-61
2022/11/08 10:05:44;;;;;;;4.03;2.33;;;9.70;89.90;;;;;;5108484;27;20450;-61
2022/11/08 10:08:16;;;;;;;;;;;9.70;90.00;;;;;;5090671;27;20043;-61
2022/11/08 10:11:06;;;;;;;4.78;1.95;;;9.70;89.90;;;;;;5099817;27;20419;-61
2022/11/08 10:13:42;;;;;;;3.83;1.90;;;9.80;89.80;;;;;;5107693;27;20047;-62
2022/11/08 10:16:19;;;;;;;4.82;2.20;;;9.90;89.90;;;;;;5104691;27;20036;-62
2022/11/08 10:19:05;;;;;;;4.80;2.05;;;10.00;89.50;;;;;;5105591;27;20073;-62
2022/11/08 10:21:49;;;;;;;5.57;2.33;;;10.10;89.40;;;;;;5107912;28;20413;-61
2022/11/08 10:24:24;;;;;;;4.70;1.92;;;10.10;89.00;;;;;;5106395;27;20138;-61
2022/11/08 10:26:54;;;;;;;4.68;2.13;;;10.20;89.20;;;;;;5107838;27;20044;-61
2022/11/08 10:29:23;;;;;;;4.20;2.17;;;10.20;88.80;;;;;;5105365;27;20122;-62
2022/11/08 10:31:58;;;;;;;5.22;2.00;;;10.30;89.10;;;;;;5103354;27;20130;-63
2022/11/08 10:34:29;;;;;;;5.28;2.00;;;10.30;88.80;;;;;;5105244;27;20051;-63
2022/11/08 10:37:03;;;;;;;6.63;2.30;;;10.30;88.50;;;;;;5104439;27;20051;-60
2022/11/08 10:39:40;;;;;;;6.25;2.50;;;10.40;88.50;;;;;;5104760;27;20075;-61
2022/11/08 10:42:11;;;;;;;6.95;2.72;;;10.40;88.50;;;;;;5106911;27;20036;-62
2022/11/08 10:44:40;;;;;;;7.13;2.72;;;10.50;88.50;;;;;;5108107;27;20040;-61
2022/11/08 10:47:13;;;;;;;6.40;2.70;;;10.50;88.70;;;;;;5106215;27;20066;-62
2022/11/08 10:49:42;;;;;;;6.32;2.33;;;10.60;88.50;;;;;;5106042;27;20453;-61
2022/11/08 10:52:18;;;;;;;4.93;2.28;;;10.60;88.30;;;;;;5108656;27;20466;-61
2022/11/08 10:54:47;;;;;;;4.38;2.03;;;10.70;88.30;;;;;;5107105;27;20507;-61
2022/11/08 10:57:16;;;;;;;4.75;2.20;;;10.70;88.20;;;;;;5105277;27;20414;-61
2022/11/08 10:59:44;;;;;;;3.92;2.03;;;10.70;88.20;;;;;;5107120;27;20673;-61
2022/11/08 11:02:25;;;;;;;5.47;2.25;;;10.70;88.20;;;;;;5103879;27;20043;-61
2022/11/08 11:04:54;;;;;;;6.07;2.30;;;10.70;88.20;;;;;;5106349;27;20047;-61
2022/11/08 11:07:30;;;;;;;5.40;2.10;;;10.80;88.30;;;;;;5106346;27;20052;-62
2022/11/08 11:09:57;;;;;;;5.05;2.20;;;10.80;88.40;;;;;;5104421;27;20036;-60
2022/11/08 11:12:24;;;;;;;3.65;1.90;;;10.80;88.20;;;;;;5104930;27;20114;-60
2022/11/08 11:14:58;;;;;;;5.50;2.22;;;10.90;88.20;;;;;;5106795;27;20093;-61
2022/11/08 11:17:33;;;;;;;4.32;2.00;;;10.80;88.30;;;;;;5104508;27;20081;-62
2022/11/08 11:20:00;;;;;;;5.38;2.40;;;10.90;88.30;;;;;;5105108;27;20044;-61
2022/11/08 11:22:34;;;;;;;5.10;1.70;;;10.90;88.10;;;;;;5105696;27;20163;-60
2022/11/08 11:25:07;;;;;;;6.32;2.20;;;10.90;88.20;;;;;;5106516;27;20127;-62
2022/11/08 11:27:37;;;;;;;4.78;1.98;;;10.90;88.40;;;;;;5106240;27;20567;-61
2022/11/08 11:30:22;;;;;;;6.70;2.00;;;11.00;88.20;;;;;;5106527;28;20082;-60
2022/11/08 11:33:00;;;;;;;6.82;2.50;;;11.00;88.10;;;;;;5101564;27;20047;-60
2022/11/08 11:35:34;;;;;;;4.18;2.05;;;11.00;87.80;;;;;;5104800;27;20048;-61
2022/11/08 11:38:06;;;;;;;4.25;2.00;;;11.00;88.10;;;;;;5102229;27;20044;-62
2022/11/08 11:40:38;;;;;;;3.90;1.90;;;11.00;88.20;;;;;;5103552;27;20059;-60
2022/11/08 11:43:11;;;;;;;4.63;1.98;;;11.10;88.20;;;;;;5104685;27;20050;-62
2022/11/08 11:45:46;;;;;;;6.68;2.70;;;11.10;88.10;;;;;;5103889;28;20124;-62
2022/11/08 11:48:22;;;;;;;5.22;2.20;;;11.10;87.80;;;;;;5103499;27;20044;-61
2022/11/08 11:50:50;;;;;;;5.07;2.00;;;11.10;88.00;;;;;;5107688;27;20043;-61
2022/11/08 11:53:21;;;;;;;5.78;2.30;;;11.20;88.00;;;;;;5117793;28;20059;-60
2022/11/08 11:56:09;;;;;;;4.68;2.17;;;11.20;88.10;;;;;;5115219;27;20066;-61
2022/11/08 11:58:55;;;;;;;9.00;2.63;;;11.20;87.90;;;;;;5106509;27;20048;-61
2022/11/08 12:01:32;;;;;;;4.43;2.45;;;11.20;87.80;;;;;;5105800;27;20607;-61
2022/11/08 12:04:18;;;;;;;4.13;1.85;;;11.30;87.90;;;;;;5107020;27;20052;-62
2022/11/08 12:06:51;;;;;;;4.85;2.15;;;11.30;87.90;;;;;;5105782;27;20067;-61
2022/11/08 12:09:33;;;;;;;5.40;2.30;;;11.30;87.90;;;;;;5107290;27;20497;-62
2022/11/08 12:12:14;;;;;;;4.03;1.67;;;11.30;87.80;;;;;;5101197;27;20074;-61
2022/11/08 12:15:02;;;;;;;3.50;1.50;;;11.40;88.10;;;;;;5102093;27;20112;-61
2022/11/08 12:17:58;;;;;;;3.38;1.58;;;11.50;87.40;;;;;;5105822;27;20047;-62
2022/11/08 12:20:41;;;;;;;3.75;1.20;;;11.60;87.10;;;;;;5104594;27;20135;-60
2022/11/08 12:23:35;;;;;;;3.30;1.42;;;11.70;86.40;;;;;;5105527;27;20115;-62
2022/11/08 12:26:12;;;;;;;2.67;1.30;;;11.70;85.80;;;;;;5106639;27;20048;-61
2022/11/08 12:28:51;;;;;;;4.13;1.40;;;11.70;85.80;;;;;;5105841;27;20063;-62
2022/11/08 12:31:26;;;;;;;3.65;1.20;;;11.80;85.20;;;;;;5102729;27;20066;-60
2022/11/08 12:34:07;;;;;;;2.92;1.33;;;11.80;84.30;;;;;;5104112;28;20059;-62
2022/11/08 12:36:45;;;;;;;2.95;1.10;;;11.90;84.10;;;;;;5104937;27;20044;-62
2022/11/08 12:39:22;;;;;;;5.07;1.40;;;11.90;84.10;;;;;;5107316;27;20040;-61
2022/11/08 12:42:00;;;;;;;3.63;1.40;;;11.90;83.40;;;;;;5105629;27;20044;-62
2022/11/08 12:44:53;;;;;;;3.42;1.05;;;11.90;83.30;;;;;;5105416;27;20059;-60
2022/11/08 12:47:30;;;;;;;3.15;1.00;;;12.00;82.90;;;;;;5104482;27;20066;-61
2022/11/08 12:50:13;;;;;;;4.18;1.20;;;12.00;82.30;;;;;;5106917;27;20116;-60
2022/11/08 12:52:52;;;;;;;2.70;0.90;;;12.10;82.40;;;;;;5109659;27;20052;-61
2022/11/08 12:55:25;;;;;;;2.13;0.80;;;12.00;82.00;;;;;;5111354;27;20060;-62
2022/11/08 12:57:54;;;;;;;2.78;0.93;;;12.00;82.40;;;;;;5110409;27;20039;-62
2022/11/08 13:00:22;;;;;;;2.60;0.95;;;12.00;82.70;;;;;;5110240;27;20124;-62
2022/11/08 13:03:02;;;;;;;2.78;0.80;;;11.90;82.80;;;;;;5109042;27;20039;-62
2022/11/08 13:05:35;;;;;;;2.28;1.08;;;11.90;83.30;;;;;;5109105;27;20043;-62
2022/11/08 13:08:11;;;;;;;4.07;0.85;;;11.90;82.80;;;;;;5109452;27;20514;-61
2022/11/08 13:10:46;;;;;;;3.47;1.10;;;11.90;82.30;;;;;;5109163;27;20413;-61
2022/11/08 13:13:22;;;;;;;2.97;0.90;;;11.90;82.60;;;;;;5108989;27;20039;-62
2022/11/08 13:16:11;;;;;;;2.70;1.02;;;11.90;82.40;;;;;;5108292;27;20082;-61
2022/11/08 13:18:45;;;;;;;3.63;1.05;;;11.90;81.80;;;;;;5109826;27;20047;-62
2022/11/08 13:21:36;;;;;;;4.82;2.08;;;12.00;81.50;;;;;;5108769;27;20043;-62
2022/11/08 13:24:32;;;;;;;5.43;2.40;;;12.10;81.60;;;;;;5111713;27;20509;-61
2022/11/08 13:27:37;;;;;;;6.05;2.63;;;12.10;81.40;;;;;;5109065;27;20387;-62
2022/11/08 13:30:35;;;;;;;5.72;2.70;;;12.10;81.10;;;;;;5093705;27;20097;-66
2022/11/08 13:33:16;;;;;;;4.35;2.35;;;12.10;81.80;;;;;;5109648;27;20059;-61
2022/11/08 13:35:52;;;;;;;5.25;2.30;;;12.10;82.30;;;;;;5109498;27;20470;-62